createdAt,value
2022-10-13T00:01:21.135Z,101760.63
2022-10-13T00:03:48.932Z,101766.78
2022-10-13T00:06:18.987Z,101756.22
2022-10-13T00:08:46.449Z,101757.09
2022-10-13T00:11:25.236Z,101753.63
2022-10-13T00:14:00.751Z,101759.81
2022-10-13T00:16:29.079Z,101758.94
2022-10-13T00:18:56.380Z,101753.69
2022-10-13T00:21:26.497Z,101740.53
2022-10-13T00:23:54.743Z,101744.91
2022-10-13T00:26:25.398Z,101737.91
2022-10-13T00:28:53.802Z,101731.75
2022-10-13T00:31:23.322Z,101735.25
2022-10-13T00:33:50.461Z,101736.09
2022-10-13T00:36:17.711Z,101734.31
2022-10-13T00:38:45.014Z,101727.25
2022-10-13T00:41:12.526Z,101726.38
2022-10-13T00:44:00.039Z,101731.69
2022-10-13T00:46:37.111Z,101729.91
2022-10-13T00:49:12.079Z,101728.13
2022-10-13T00:51:48.797Z,101729.88
2022-10-13T00:54:24.175Z,101729.91
2022-10-13T00:56:52.686Z,101736.09
2022-10-13T00:59:29.023Z,101723.78
2022-10-13T01:01:58.584Z,101727.34
2022-10-13T01:04:32.152Z,101730.84
2022-10-13T01:07:00.119Z,101726.47
2022-10-13T01:09:27.201Z,101724.72
2022-10-13T01:12:18.624Z,101725.59
2022-10-13T01:15:14.467Z,101721.19
2022-10-13T01:18:01.527Z,101722.09
2022-10-13T01:20:49.806Z,101727.41
2022-10-13T01:24:10.030Z,101717.75
2022-10-13T01:27:26.103Z,101730.94
2022-10-13T01:30:18.438Z,101726.56
2022-10-13T01:33:09.891Z,101725.72
2022-10-13T01:35:54.272Z,101726.59
2022-10-13T01:38:34.623Z,101725.72
2022-10-13T01:41:25.826Z,101724.84
2022-10-13T01:44:03.504Z,101727.50
2022-10-13T01:46:38.064Z,101714.34
2022-10-13T01:49:14.419Z,101719.66
2022-10-13T01:51:44.156Z,101717.03
2022-10-13T01:54:11.470Z,101713.53
2022-10-13T01:56:38.443Z,101710.00
2022-10-13T01:59:14.625Z,101705.63
2022-10-13T02:01:56.710Z,101702.09
2022-10-13T02:05:05.439Z,101694.19
2022-10-13T02:08:05.862Z,101695.94
2022-10-13T02:11:06.663Z,101680.13
2022-10-13T02:13:37.353Z,101680.13
2022-10-13T02:16:05.017Z,101686.28
2022-10-13T02:18:35.921Z,101679.28
2022-10-13T02:21:04.643Z,101694.25
2022-10-13T02:23:32.083Z,101681.94
2022-10-13T02:26:00.616Z,101681.94
2022-10-13T02:28:29.348Z,101678.41
2022-10-13T02:30:56.496Z,101680.19
2022-10-13T02:33:23.443Z,101672.28
2022-10-13T02:35:50.474Z,101671.41
2022-10-13T02:38:17.504Z,101667.88
2022-10-13T02:40:45.208Z,101671.41
2022-10-13T02:43:12.446Z,101673.16
2022-10-13T02:45:39.605Z,101675.81
2022-10-13T02:48:06.704Z,101679.31
2022-10-13T02:50:33.695Z,101677.56
2022-10-13T02:53:00.701Z,101667.03
2022-10-13T02:55:27.775Z,101666.19
2022-10-13T02:57:55.094Z,101673.22
2022-10-13T03:00:23.014Z,101667.09
2022-10-13T03:02:49.951Z,101660.91
2022-10-13T03:05:17.428Z,101653.00
2022-10-13T03:07:44.574Z,101661.81
2022-10-13T03:10:11.665Z,101664.44
2022-10-13T03:12:38.880Z,101659.16
2022-10-13T03:15:06.587Z,101665.38
2022-10-13T03:17:33.604Z,101660.97
2022-10-13T03:20:00.572Z,101654.81
2022-10-13T03:22:27.575Z,101655.72
2022-10-13T03:24:54.553Z,101659.22
2022-10-13T03:27:21.489Z,101649.56
2022-10-13T03:29:48.538Z,101639.00
2022-10-13T03:32:16.554Z,101652.19
2022-10-13T03:34:43.625Z,101653.97
2022-10-13T03:37:10.748Z,101638.13
2022-10-13T03:39:37.834Z,101632.84
2022-10-13T03:42:04.921Z,101638.13
2022-10-13T03:44:31.989Z,101629.38
2022-10-13T03:46:59.003Z,101632.84
2022-10-13T03:49:25.983Z,101635.53
2022-10-13T03:51:53.046Z,101633.72
2022-10-13T03:54:20.148Z,101628.44
2022-10-13T03:56:47.528Z,101636.38
2022-10-13T03:59:17.333Z,101625.81
2022-10-13T04:01:44.415Z,101630.22
2022-10-13T04:04:12.894Z,101628.44
2022-10-13T04:06:39.938Z,101623.16
2022-10-13T04:09:06.948Z,101621.41
2022-10-13T04:11:34.424Z,101619.66
2022-10-13T04:14:01.450Z,101617.00
2022-10-13T04:16:30.863Z,101626.69
2022-10-13T04:19:04.313Z,101620.50
2022-10-13T04:21:34.078Z,101620.50
2022-10-13T04:24:02.327Z,101609.94
2022-10-13T04:26:34.119Z,101619.66
2022-10-13T04:29:04.321Z,101627.56
2022-10-13T04:31:32.333Z,101614.34
2022-10-13T04:33:59.551Z,101604.66
2022-10-13T04:36:27.070Z,101602.03
2022-10-13T04:38:55.457Z,101592.34
2022-10-13T04:41:23.212Z,101587.06
2022-10-13T04:43:54.220Z,101592.41
2022-10-13T04:46:25.584Z,101584.47
2022-10-13T04:48:53.127Z,101584.50
2022-10-13T04:51:23.956Z,101587.13
2022-10-13T04:54:02.328Z,101589.78
2022-10-13T04:56:29.714Z,101583.66
2022-10-13T04:58:56.810Z,101574.84
2022-10-13T05:01:25.461Z,101568.72
2022-10-13T05:03:59.683Z,101576.63
2022-10-13T05:06:31.323Z,101577.50
2022-10-13T05:08:59.543Z,101588.06
2022-10-13T05:11:28.280Z,101581.03
2022-10-13T05:13:56.824Z,101586.31
2022-10-13T05:16:25.626Z,101590.75
2022-10-13T05:18:55.152Z,101589.88
2022-10-13T05:21:26.621Z,101563.47
2022-10-13T05:23:55.937Z,101577.56
2022-10-13T05:26:29.078Z,101574.06
2022-10-13T05:29:00.586Z,101576.72
2022-10-13T05:31:29.618Z,101574.06
2022-10-13T05:33:57.235Z,101580.22
2022-10-13T05:36:31.363Z,101592.56
2022-10-13T05:39:02.123Z,101601.34
2022-10-13T05:41:30.850Z,101593.44
2022-10-13T05:44:04.461Z,101596.09
2022-10-13T05:46:31.730Z,101582.91
2022-10-13T05:48:59.054Z,101593.47
2022-10-13T05:51:36.790Z,101600.50
2022-10-13T05:54:31.018Z,101586.44
2022-10-13T05:57:14.458Z,101583.78
2022-10-13T05:59:51.254Z,101577.63
2022-10-13T06:02:20.906Z,101595.22
2022-10-13T06:04:51.991Z,101584.72
2022-10-13T06:07:19.655Z,101576.78
2022-10-13T06:09:46.842Z,101576.78
2022-10-13T06:12:13.901Z,101573.28
2022-10-13T06:14:40.956Z,101568.00
2022-10-13T06:17:08.573Z,101569.75
2022-10-13T06:19:35.668Z,101570.63
2022-10-13T06:22:03.773Z,101570.63
2022-10-13T06:24:31.698Z,101575.91
2022-10-13T06:26:58.815Z,101563.59
2022-10-13T06:29:25.920Z,101558.34
2022-10-13T06:31:52.998Z,101554.84
2022-10-13T06:34:19.986Z,101541.63
2022-10-13T06:36:49.634Z,101551.31
2022-10-13T06:39:16.822Z,101552.22
2022-10-13T06:41:44.067Z,101551.41
2022-10-13T06:44:11.273Z,101554.91
2022-10-13T06:46:38.263Z,101556.72
2022-10-13T06:49:05.245Z,101548.81
2022-10-13T06:51:32.652Z,101546.16
2022-10-13T06:53:59.631Z,101554.13
2022-10-13T06:56:26.816Z,101547.97
2022-10-13T06:58:53.812Z,101551.50
2022-10-13T07:01:20.962Z,101554.16
2022-10-13T07:03:51.607Z,101565.59
2022-10-13T07:06:19.367Z,101566.47
2022-10-13T07:08:46.801Z,101555.03
2022-10-13T07:11:16.447Z,101561.16
2022-10-13T07:13:46.616Z,101570.84
2022-10-13T07:16:15.349Z,101570.00
2022-10-13T07:18:42.501Z,101562.97
2022-10-13T07:21:10.081Z,101558.53
2022-10-13T07:23:37.019Z,101570.00
2022-10-13T07:26:14.004Z,101574.41
2022-10-13T07:28:42.493Z,101573.56
2022-10-13T07:31:14.299Z,101567.34
2022-10-13T07:33:44.305Z,101568.22
2022-10-13T07:36:12.526Z,101559.38
2022-10-13T07:38:40.016Z,101569.09
2022-10-13T07:41:10.188Z,101559.38
2022-10-13T07:43:37.221Z,101554.94
2022-10-13T07:46:05.416Z,101552.28
2022-10-13T07:48:33.709Z,101558.44
2022-10-13T07:51:08.360Z,101556.69
2022-10-13T07:53:36.271Z,101559.34
2022-10-13T07:56:05.911Z,101554.00
2022-10-13T07:58:33.921Z,101553.97
2022-10-13T08:01:02.265Z,101555.72
2022-10-13T08:03:30.729Z,101554.81
2022-10-13T08:06:02.714Z,101555.66
2022-10-13T08:08:30.395Z,101553.84
2022-10-13T08:11:31.999Z,101552.94
2022-10-13T08:14:01.861Z,101549.34
2022-10-13T08:16:30.216Z,101548.44
2022-10-13T08:18:58.989Z,101546.63
2022-10-13T08:24:17.609Z,101550.97
2022-10-13T08:26:49.238Z,101545.69
2022-10-13T08:29:22.007Z,101548.28
2022-10-13T08:34:24.293Z,101530.47
2022-10-13T08:36:54.370Z,101534.84
2022-10-13T08:39:23.024Z,101550.63
2022-10-13T08:41:50.592Z,101547.91
2022-10-13T08:47:44.638Z,101535.56
2022-10-13T08:50:23.067Z,101539.09
2022-10-13T08:53:13.508Z,101538.28
2022-10-13T08:55:46.757Z,101538.28
2022-10-13T08:58:28.468Z,101533.00
2022-10-13T09:01:07.353Z,101542.72
2022-10-13T09:03:52.993Z,101538.16
2022-10-13T09:06:28.468Z,101542.41
2022-10-13T09:09:02.417Z,101533.34
2022-10-13T09:11:36.903Z,101521.69
2022-10-13T09:14:25.001Z,101516.22
2022-10-13T09:16:54.957Z,101521.50
2022-10-13T09:19:36.568Z,101519.78
2022-10-13T09:22:25.644Z,101524.31
2022-10-13T09:25:07.891Z,101518.22
2022-10-13T09:27:46.701Z,101521.00
2022-10-13T09:30:49.812Z,101517.56
2022-10-13T09:33:24.128Z,101515.03
2022-10-13T09:35:57.170Z,101513.34
2022-10-13T09:38:25.893Z,101520.47
2022-10-13T09:41:11.083Z,101516.09
2022-10-13T09:44:11.332Z,101509.06
2022-10-13T09:46:48.060Z,101506.50
2022-10-13T09:49:41.504Z,101505.63
2022-10-13T09:52:19.221Z,101504.72
2022-10-13T09:54:53.423Z,101499.41
2022-10-13T09:57:44.723Z,101502.09
2022-10-13T10:00:24.573Z,101503.84
2022-10-13T10:03:11.015Z,101502.00
2022-10-13T10:05:52.148Z,101499.28
2022-10-13T10:09:04.690Z,101495.63
2022-10-13T10:11:42.547Z,101496.50
2022-10-13T10:14:34.037Z,101499.09
2022-10-13T10:17:26.583Z,101487.56
2022-10-13T10:20:18.232Z,101492.06
2022-10-13T10:23:05.046Z,101486.78
2022-10-13T10:25:57.431Z,101478.81
2022-10-13T10:29:16.489Z,101481.44
2022-10-13T10:32:11.330Z,101483.19
2022-10-13T10:34:53.071Z,101480.56
2022-10-13T10:37:52.249Z,101477.91
2022-10-13T10:41:12.063Z,101486.75
2022-10-13T10:44:00.201Z,101479.63
2022-10-13T10:46:34.572Z,101483.19
2022-10-13T10:49:25.714Z,101477.84
2022-10-13T10:51:53.241Z,101481.31
2022-10-13T10:54:52.643Z,101487.22
2022-10-13T10:57:48.314Z,101487.06
2022-10-13T11:00:22.410Z,101478.13
2022-10-13T11:03:25.594Z,101477.22
2022-10-13T11:06:06.149Z,101480.00
2022-10-13T11:08:41.969Z,101474.88
2022-10-13T11:11:26.677Z,101474.94
2022-10-13T11:14:22.531Z,101470.50
2022-10-13T11:17:24.043Z,101466.84
2022-10-13T11:19:51.539Z,101466.91
2022-10-13T11:22:22.638Z,101467.88
2022-10-13T11:24:57.630Z,101460.88
2022-10-13T11:27:39.943Z,101461.78
2022-10-13T11:31:18.411Z,101452.94
2022-10-13T11:33:47.827Z,101450.38
2022-10-13T11:36:33.199Z,101440.66
2022-10-13T11:42:24.364Z,101444.19
2022-10-13T11:45:01.610Z,101446.84
2022-10-13T11:47:34.112Z,101439.78
2022-10-13T11:50:35.021Z,101436.13
2022-10-13T11:53:13.980Z,101435.16
2022-10-13T11:56:03.271Z,101440.53
2022-10-13T11:58:33.597Z,101438.84
2022-10-13T12:01:00.482Z,101439.75
2022-10-13T12:03:43.498Z,101435.28
2022-10-13T12:06:16.627Z,101431.69
2022-10-13T12:08:51.459Z,101431.75
2022-10-13T12:11:29.239Z,101432.75
2022-10-13T12:13:57.487Z,101438.13
2022-10-13T12:16:24.563Z,101436.41
2022-10-13T12:18:52.420Z,101436.34
2022-10-13T12:21:22.885Z,101431.00
2022-10-13T12:23:52.467Z,101429.09
2022-10-13T12:26:25.359Z,101428.03
2022-10-13T12:29:12.326Z,101428.81
2022-10-13T12:31:42.069Z,101421.72
2022-10-13T12:34:32.935Z,101423.44
2022-10-13T12:37:40.003Z,101415.38
2022-10-13T12:40:13.723Z,101418.78
2022-10-13T12:42:41.541Z,101404.47
2022-10-13T12:45:34.739Z,101413.22
2022-10-13T12:48:01.742Z,101404.44
2022-10-13T12:50:37.074Z,101411.66
2022-10-13T12:53:19.024Z,101409.13
2022-10-13T12:55:59.147Z,101411.81
2022-10-13T12:58:34.230Z,101416.31
2022-10-13T13:01:12.414Z,101418.13
2022-10-13T13:03:43.353Z,101404.88
2022-10-13T13:06:23.617Z,101410.94
2022-10-13T13:09:24.875Z,101401.19
2022-10-13T13:12:11.360Z,101403.84
2022-10-13T13:14:42.648Z,101402.09
2022-10-13T13:17:32.997Z,101406.50
2022-10-13T13:20:31.208Z,101403.09
2022-10-13T13:22:58.252Z,101397.88
2022-10-13T13:25:25.498Z,101400.53
2022-10-13T13:27:53.039Z,101394.19
2022-10-13T13:30:23.234Z,101396.69
2022-10-13T13:32:50.732Z,101402.81
2022-10-13T13:35:17.992Z,101406.34
2022-10-13T13:37:51.566Z,101399.34
2022-10-13T13:40:27.931Z,101390.53
2022-10-13T13:42:55.873Z,101390.47
2022-10-13T13:45:26.546Z,101393.88
2022-10-13T13:47:59.486Z,101375.34
2022-10-13T13:50:35.486Z,101377.88
2022-10-13T13:53:02.722Z,101386.72
2022-10-13T13:55:30.233Z,101377.94
2022-10-13T13:57:58.284Z,101385.03
2022-10-13T14:00:25.519Z,101383.25
2022-10-13T14:02:52.556Z,101385.97
2022-10-13T14:05:20.048Z,101388.63
2022-10-13T14:07:47.184Z,101388.63
2022-10-13T14:10:14.418Z,101392.22
2022-10-13T14:12:41.387Z,101382.53
2022-10-13T14:15:09.317Z,101380.75
2022-10-13T14:17:36.390Z,101379.06
2022-10-13T14:20:03.827Z,101380.09
2022-10-13T14:22:30.793Z,101376.66
2022-10-13T14:24:57.814Z,101376.75
2022-10-13T14:27:25.126Z,101383.06
2022-10-13T14:29:52.109Z,101381.28
2022-10-13T14:32:19.520Z,101377.75
2022-10-13T14:34:46.861Z,101371.28
2022-10-13T14:37:14.211Z,101375.47
2022-10-13T14:39:41.571Z,101378.06
2022-10-13T14:42:08.655Z,101378.84
2022-10-13T14:44:35.855Z,101371.63
2022-10-13T14:47:02.947Z,101370.66
2022-10-13T14:49:29.970Z,101370.78
2022-10-13T14:51:57.108Z,101371.88
2022-10-13T14:54:25.464Z,101372.00
2022-10-13T14:56:52.417Z,101364.16
2022-10-13T14:59:19.652Z,101365.94
2022-10-13T15:01:48.939Z,101366.81
2022-10-13T15:04:15.925Z,101367.75
2022-10-13T15:06:43.007Z,101366.97
2022-10-13T15:09:10.790Z,101365.25
2022-10-13T15:11:37.973Z,101365.19
2022-10-13T15:14:04.999Z,101352.75
2022-10-13T15:16:33.652Z,101353.66
2022-10-13T15:19:00.644Z,101352.84
2022-10-13T15:21:27.678Z,101359.13
2022-10-13T15:23:55.406Z,101358.28
2022-10-13T15:26:22.938Z,101365.41
2022-10-13T15:28:52.912Z,101368.13
2022-10-13T15:31:22.418Z,101361.94
2022-10-13T15:33:53.240Z,101362.84
2022-10-13T15:36:22.044Z,101361.16
2022-10-13T15:38:49.200Z,101355.97
2022-10-13T15:41:16.595Z,101348.16
2022-10-13T15:43:43.784Z,101350.91
2022-10-13T15:46:24.162Z,101358.91
2022-10-13T15:48:53.384Z,101356.31
2022-10-13T15:51:24.085Z,101354.50
2022-10-13T15:53:51.418Z,101357.16
2022-10-13T15:56:18.790Z,101352.75
2022-10-13T15:58:45.841Z,101359.84
2022-10-13T16:01:14.024Z,101355.47
2022-10-13T16:03:41.959Z,101363.44
2022-10-13T16:06:12.166Z,101360.81
2022-10-13T16:08:40.852Z,101352.91
2022-10-13T16:11:13.717Z,101355.53
2022-10-13T16:13:41.634Z,101357.28
2022-10-13T16:16:10.256Z,101349.28
2022-10-13T16:18:41.448Z,101355.44
2022-10-13T16:21:19.011Z,101351.03
2022-10-13T16:23:47.704Z,101346.59
2022-10-13T16:26:17.424Z,101345.72
2022-10-13T16:28:46.543Z,101344.81
2022-10-13T16:31:16.607Z,101341.28
2022-10-13T16:33:45.728Z,101350.16
2022-10-13T16:36:16.760Z,101350.22
2022-10-13T16:38:45.910Z,101354.69
2022-10-13T16:41:18.964Z,101359.16
2022-10-13T16:43:47.958Z,101349.56
2022-10-13T16:46:18.974Z,101350.44
2022-10-13T16:48:47.539Z,101352.19
2022-10-13T16:51:19.174Z,101364.59
2022-10-13T16:54:02.945Z,101364.63
2022-10-13T16:56:31.701Z,101364.69
2022-10-13T16:59:05.741Z,101370.00
2022-10-13T17:01:34.870Z,101371.75
2022-10-13T17:04:03.067Z,101373.59
2022-10-13T17:06:30.465Z,101366.53
2022-10-13T17:08:59.522Z,101371.81
2022-10-13T17:11:30.470Z,101378.91
2022-10-13T17:13:59.543Z,101382.44
2022-10-13T17:16:27.534Z,101392.16
2022-10-13T17:18:55.137Z,101386.88
2022-10-13T17:21:22.556Z,101387.72
2022-10-13T17:23:49.933Z,101390.38
2022-10-13T17:26:18.728Z,101392.19
2022-10-13T17:28:46.003Z,101394.84
2022-10-13T17:31:17.628Z,101386.97
2022-10-13T17:33:47.395Z,101402.00
2022-10-13T17:36:19.427Z,101402.88
2022-10-13T17:38:48.092Z,101399.38
2022-10-13T17:41:17.382Z,101402.91
2022-10-13T17:43:44.613Z,101404.69
2022-10-13T17:46:37.004Z,101403.78
2022-10-13T17:49:04.033Z,101403.81
2022-10-13T17:51:31.148Z,101402.94
2022-10-13T17:53:59.731Z,101407.34
2022-10-13T17:56:27.241Z,101420.56
2022-10-13T17:58:54.719Z,101417.94
2022-10-13T18:01:26.530Z,101412.66
2022-10-13T18:03:57.151Z,101416.19
2022-10-13T18:06:24.566Z,101420.63
2022-10-13T18:08:51.874Z,101418.84
2022-10-13T18:11:22.900Z,101415.28
2022-10-13T18:13:50.686Z,101423.25
2022-10-13T18:16:21.438Z,101411.78
2022-10-13T18:18:50.215Z,101418.84
2022-10-13T18:21:22.317Z,101424.16
2022-10-13T18:23:49.784Z,101419.75
2022-10-13T18:26:19.505Z,101417.97
2022-10-13T18:28:48.965Z,101418.00
2022-10-13T18:31:37.033Z,101422.41
2022-10-13T18:34:08.067Z,101422.41
2022-10-13T18:36:43.073Z,101423.31
2022-10-13T18:39:19.613Z,101430.38
2022-10-13T18:41:47.928Z,101435.66
2022-10-13T18:44:15.712Z,101427.72
2022-10-13T18:46:43.139Z,101437.44
2022-10-13T18:49:15.105Z,101430.38
2022-10-13T18:51:42.403Z,101433.03
2022-10-13T18:54:10.200Z,101437.44
2022-10-13T18:56:37.676Z,101438.34
2022-10-13T18:59:08.235Z,101437.44
2022-10-13T19:01:37.080Z,101438.34
2022-10-13T19:04:05.647Z,101438.34
2022-10-13T19:06:33.216Z,101426.88
2022-10-13T19:09:05.240Z,101439.22
2022-10-13T19:11:33.610Z,101431.28
2022-10-13T19:14:01.622Z,101430.41
2022-10-13T19:16:31.225Z,101431.31
2022-10-13T19:18:58.895Z,101430.44
2022-10-13T19:21:26.304Z,101433.09
2022-10-13T19:23:53.627Z,101427.81
2022-10-13T19:26:24.587Z,101441.94
2022-10-13T19:29:05.550Z,101444.56
2022-10-13T19:31:34.629Z,101444.56
2022-10-13T19:34:03.296Z,101444.56
2022-10-13T19:36:40.634Z,101436.63
2022-10-13T19:39:22.245Z,101436.63
2022-10-13T19:41:51.055Z,101442.81
2022-10-13T19:44:20.440Z,101445.47
2022-10-13T19:46:48.070Z,101444.59
2022-10-13T19:49:17.755Z,101442.81
2022-10-13T19:51:45.994Z,101441.06
2022-10-13T19:54:14.905Z,101439.28
2022-10-13T19:56:46.044Z,101443.72
2022-10-13T19:59:13.344Z,101437.53
2022-10-13T20:01:41.117Z,101440.19
2022-10-13T20:04:10.654Z,101443.72
2022-10-13T20:06:38.301Z,101444.59
2022-10-13T20:09:06.035Z,101442.81
2022-10-13T20:11:33.108Z,101447.22
2022-10-13T20:14:00.057Z,101441.94
2022-10-13T20:16:27.227Z,101444.59
2022-10-13T20:18:58.562Z,101439.31
2022-10-13T20:21:27.393Z,101440.19
2022-10-13T20:23:54.792Z,101446.34
2022-10-13T20:26:22.786Z,101446.34
2022-10-13T20:28:52.193Z,101445.47
2022-10-13T20:31:21.721Z,101440.19
2022-10-13T20:33:52.782Z,101452.53
2022-10-13T20:36:19.726Z,101448.13
2022-10-13T20:38:51.559Z,101443.69
2022-10-13T20:41:31.318Z,101443.69
2022-10-13T20:44:03.742Z,101456.06
2022-10-13T20:46:33.380Z,101449.88
2022-10-13T20:49:16.338Z,101449.00
2022-10-13T20:51:47.371Z,101446.34
2022-10-13T20:54:16.268Z,101437.53
2022-10-13T20:56:43.722Z,101453.41
2022-10-13T20:59:14.777Z,101452.53
2022-10-13T21:01:42.465Z,101455.16
2022-10-13T21:04:09.798Z,101453.44
2022-10-13T21:06:37.159Z,101458.72
2022-10-13T21:09:07.152Z,101455.16
2022-10-13T21:11:34.556Z,101456.94
2022-10-13T21:14:06.498Z,101468.41
2022-10-13T21:16:34.224Z,101461.38
2022-10-13T21:19:01.504Z,101455.19
2022-10-13T21:21:32.539Z,101453.44
2022-10-13T21:24:04.476Z,101456.94
2022-10-13T21:26:34.176Z,101456.91
2022-10-13T21:29:02.139Z,101450.75
2022-10-13T21:31:29.743Z,101455.19
2022-10-13T21:33:57.435Z,101450.75
2022-10-13T21:36:29.896Z,101449.00
2022-10-13T21:39:04.965Z,101451.66
2022-10-13T21:41:32.122Z,101454.31
2022-10-13T21:43:59.390Z,101451.66
2022-10-13T21:46:32.436Z,101440.19
2022-10-13T21:49:04.215Z,101440.19
2022-10-13T21:51:38.093Z,101446.38
2022-10-13T21:54:09.386Z,101448.09
2022-10-13T21:56:37.702Z,101443.69
2022-10-13T21:59:05.913Z,101438.38
2022-10-13T22:01:34.247Z,101443.66
2022-10-13T22:04:02.516Z,101438.38
2022-10-13T22:06:32.223Z,101436.63
2022-10-13T22:09:02.282Z,101425.16
2022-10-13T22:11:32.324Z,101438.41
2022-10-13T22:14:00.269Z,101433.97
2022-10-13T22:16:33.215Z,101426.94
2022-10-13T22:19:00.290Z,101427.81
2022-10-13T22:21:31.302Z,101420.78
2022-10-13T22:24:01.161Z,101426.06
2022-10-13T22:26:31.261Z,101423.41
2022-10-13T22:29:00.882Z,101421.66
2022-10-13T22:31:28.614Z,101418.13
2022-10-13T22:33:55.552Z,101422.53
2022-10-13T22:36:25.266Z,101425.19
2022-10-13T22:38:58.836Z,101418.13
2022-10-13T22:41:26.264Z,101411.97
2022-10-13T22:43:58.825Z,101413.72
2022-10-13T22:46:32.799Z,101407.53
2022-10-13T22:49:00.332Z,101411.97
2022-10-13T22:51:30.527Z,101412.84
2022-10-13T22:53:58.519Z,101408.44
2022-10-13T22:56:29.668Z,101406.66
2022-10-13T22:59:04.449Z,101403.13
2022-10-13T23:01:32.311Z,101400.50
2022-10-13T23:04:00.035Z,101401.38
2022-10-13T23:06:33.772Z,101404.03
2022-10-13T23:09:03.157Z,101407.56
2022-10-13T23:11:30.485Z,101396.97
2022-10-13T23:13:57.451Z,101406.69
2022-10-13T23:16:26.330Z,101401.41
2022-10-13T23:18:54.344Z,101404.94
2022-10-13T23:21:23.399Z,101398.75
2022-10-13T23:23:59.368Z,101392.59
2022-10-13T23:26:27.697Z,101386.44
2022-10-13T23:28:58.736Z,101382.06
2022-10-13T23:31:27.659Z,101377.63
2022-10-13T23:33:54.871Z,101378.50
2022-10-13T23:36:26.097Z,101379.41
2022-10-13T23:38:58.512Z,101369.69
2022-10-13T23:41:27.579Z,101368.81
2022-10-13T23:43:54.951Z,101359.09
2022-10-13T23:46:22.026Z,101367.06
2022-10-13T23:48:49.151Z,101365.28
2022-10-13T23:51:20.424Z,101367.06
2022-10-13T23:53:47.913Z,101367.97
2022-10-13T23:56:15.286Z,101361.78
2022-10-13T23:58:43.858Z,101362.66
